Time;durP1;ratioP1;P1;durP2;ratioP2;P2;SDS_P1;SDS_P2;PMS_P1;PMS_P2;Temp;Humidity;BMP_temperature;BMP_pressure;BME280_temperature;BME280_humidity;BME280_pressure;Samples;Min_cycle;Max_cycle;Signal;HPM_P1;HPM_P2
2023/07/20 00:02:08;;;;;;;8.60;2.47;;;;;;;;;;5045730;28;20087;-83
2023/07/20 00:04:57;;;;;;;6.05;2.03;;;;;;;;;;5046703;28;20045;-83
2023/07/20 00:07:26;;;;;;;5.03;2.20;;;;;;;;;;5045373;28;20045;-83
2023/07/20 00:09:55;;;;;;;5.97;2.20;;;;;;;;;;5046513;28;20051;-83
2023/07/20 00:12:21;;;;;;;5.68;2.65;;;;;;;;;;5037273;28;20155;-83
2023/07/20 00:14:49;;;;;;;5.13;2.30;;;;;;;;;;5009040;28;20109;-83
2023/07/20 00:17:36;;;;;;;;;;;;;;;;;;;;;
2023/07/20 00:20:26;;;;;;;8.55;2.88;;;;;;;;;;5023979;28;20036;-83
2023/07/20 00:23:02;;;;;;;;;;;;;;;;;;;;;
2023/07/20 00:25:42;;;;;;;7.82;2.58;;;;;;;;;;4979868;28;20059;-83
2023/07/20 00:28:08;;;;;;;6.72;2.67;;;;;;;;;;5012757;28;20083;-83
2023/07/20 00:30:36;;;;;;;6.63;2.65;;;;;;;;;;5024460;28;20030;-83
2023/07/20 00:33:02;;;;;;;6.35;2.95;;;;;;;;;;5007181;28;20022;-83
2023/07/20 00:35:31;;;;;;;5.82;3.00;;;;;;;;;;4989456;28;20069;-83
2023/07/20 00:38:14;;;;;;;6.57;2.60;;;;;;;;;;5006251;28;20117;-83
2023/07/20 00:40:41;;;;;;;8.30;2.75;;;;;;;;;;4996822;28;20046;-83
2023/07/20 00:43:16;;;;;;;12.45;2.92;;;;;;;;;;5006589;28;20037;-83
2023/07/20 00:45:42;;;;;;;7.97;2.50;;;;;;;;;;5006581;28;20046;-83
2023/07/20 00:52:10;;;;;;;8.20;2.75;;;;;;;;;;4944827;29;20043;-83
2023/07/20 00:58:26;;;;;;;4.25;2.30;;;;;;;;;;4862769;29;20368;-83
2023/07/20 01:01:02;;;;;;;5.43;2.30;;;;;;;;;;4936100;29;20055;-83
2023/07/20 01:03:28;;;;;;;8.02;2.60;;;;;;;;;;4943826;28;20090;-83
2023/07/20 01:06:19;;;;;;;9.15;2.60;;;;;;;;;;4945723;29;20051;-83
2023/07/20 01:09:22;;;;;;;6.78;3.00;;;;;;;;;;4966455;28;20035;-83
2023/07/20 01:12:20;;;;;;;7.25;2.20;;;;;;;;;;5034876;28;20095;-83
2023/07/20 01:14:46;;;;;;;6.57;2.30;;;;;;;;;;5044038;28;20037;-83
2023/07/20 01:17:15;;;;;;;6.03;2.55;;;;;;;;;;5044889;28;20037;-83
2023/07/20 01:23:11;;;;;;;;;;;;;;;;;;;;;
2023/07/20 01:26:08;;;;;;;4.97;2.28;;;;;;;;;;5044732;28;20059;-83
2023/07/20 01:29:18;;;;;;;9.40;2.63;;;;;;;;;;5024721;28;20111;-83
2023/07/20 01:31:54;;;;;;;7.45;2.95;;;;;;;;;;5038648;28;20049;-83
2023/07/20 01:35:20;;;;;;;;;;;;;;;;;;;;;
2023/07/20 01:38:03;;;;;;;;;;;;;;;;;;;;;
2023/07/20 01:40:29;;;;;;;;;;;;;;;;;;5064426;28;20044;-83
2023/07/20 01:43:06;;;;;;;5.32;2.63;;;;;;;;;;5064391;28;20027;-83
2023/07/20 01:50:03;;;;;;;5.38;2.50;;;;;;;;;;4887769;29;20092;-83
2023/07/20 01:52:34;;;;;;;5.72;2.55;;;;;;;;;;4832135;29;20050;-83
2023/07/20 01:54:59;;;;;;;6.22;2.90;;;;;;;;;;4919560;28;20078;-83
2023/07/20 01:57:27;;;;;;;5.85;2.60;;;;;;;;;;5009992;28;20036;-83
2023/07/20 01:59:56;;;;;;;10.75;2.70;;;;;;;;;;5048017;28;20082;-83
2023/07/20 02:03:18;;;;;;;7.22;2.72;;;;;;;;;;5064697;28;20051;-83
2023/07/20 02:09:06;;;;;;;7.70;2.70;;;;;;;;;;4945052;28;20102;-83
2023/07/20 02:11:56;;;;;;;;;;;;;;;;;;;;;
2023/07/20 02:18:05;;;;;;;6.18;2.53;;;;;;;;;;4897320;29;20119;-83
2023/07/20 02:20:31;;;;;;;7.85;2.63;;;;;;;;;;4905543;29;20044;-83
2023/07/20 02:23:00;;;;;;;5.05;2.40;;;;;;;;;;4976115;28;20145;-83
2023/07/20 02:29:08;;;;;;;8.65;2.92;;;;;;;;;;4957474;28;20130;-83
2023/07/20 02:31:50;;;;;;;;;;;;;;;;;;;;;
2023/07/20 02:34:16;;;;;;;14.20;2.95;;;;;;;;;;5048191;28;20076;-83
2023/07/20 02:37:13;;;;;;;8.13;3.15;;;;;;;;;;5029905;28;20040;-83
2023/07/20 02:39:44;;;;;;;8.75;3.70;;;;;;;;;;5037710;28;20051;-83
2023/07/20 02:42:17;;;;;;;4.68;2.78;;;;;;;;;;5048021;28;20025;-83
2023/07/20 02:44:43;;;;;;;8.38;3.13;;;;;;;;;;5062420;28;20033;-83
2023/07/20 02:47:11;;;;;;;6.28;3.25;;;;;;;;;;5031550;28;20038;-83
2023/07/20 02:49:37;;;;;;;6.10;3.08;;;;;;;;;;5027782;28;20124;-83
2023/07/20 02:52:42;;;;;;;;;;;;;;;;;;;;;
2023/07/20 02:55:09;;;;;;;8.88;3.85;;;;;;;;;;5022898;28;20048;-83
2023/07/20 02:58:09;;;;;;;9.75;3.25;;;;;;;;;;5042460;28;20049;-83
2023/07/20 03:04:02;;;;;;;14.93;3.72;;;;;;;;;;4976226;28;20142;-83
2023/07/20 03:06:31;;;;;;;8.75;3.55;;;;;;;;;;5077954;28;20055;-83
2023/07/20 03:09:12;;;;;;;11.48;3.60;;;;;;;;;;5068474;28;20035;-83
2023/07/20 03:11:53;;;;;;;6.38;2.88;;;;;;;;;;5057648;28;20037;-83
2023/07/20 03:15:00;;;;;;;10.65;4.22;;;;;;;;;;5047576;28;20099;-83
2023/07/20 03:17:31;;;;;;;10.45;4.13;;;;;;;;;;5044197;28;20049;-83
2023/07/20 03:22:55;;;;;;;9.10;3.90;;;;;;;;;;4984977;28;20038;-83
2023/07/20 03:25:22;;;;;;;10.00;3.83;;;;;;;;;;5038942;28;20040;-83
2023/07/20 03:27:51;;;;;;;8.45;3.80;;;;;;;;;;5046741;28;20037;-83
2023/07/20 03:30:20;;;;;;;10.10;4.10;;;;;;;;;;5048645;28;20056;-83
2023/07/20 03:32:46;;;;;;;11.77;4.10;;;;;;;;;;5046818;28;20533;-83
2023/07/20 03:35:17;;;;;;;10.07;3.75;;;;;;;;;;5045471;28;20037;-83
2023/07/20 03:37:55;;;;;;;12.65;4.03;;;;;;;;;;5047362;28;20041;-83
2023/07/20 03:40:23;;;;;;;10.23;3.83;;;;;;;;;;5048056;28;20041;-83
2023/07/20 03:42:52;;;;;;;8.40;4.10;;;;;;;;;;5047159;28;20029;-83
2023/07/20 03:45:58;;;;;;;10.93;4.35;;;;;;;;;;5048012;28;20033;-83
2023/07/20 03:48:27;;;;;;;10.77;3.92;;;;;;;;;;5025446;28;20029;-83
2023/07/20 03:51:42;;;;;;;10.27;3.88;;;;;;;;;;5028146;28;20029;-83
2023/07/20 03:54:08;;;;;;;14.30;4.00;;;;;;;;;;5011847;28;20137;-83
2023/07/20 03:56:39;;;;;;;7.97;3.97;;;;;;;;;;5025992;28;20128;-83
2023/07/20 03:59:13;;;;;;;7.68;3.63;;;;;;;;;;5024752;28;20600;-83
2023/07/20 04:02:52;;;;;;;;;;;;;;;;;;;;;
2023/07/20 04:05:59;;;;;;;7.53;3.93;;;;;;;;;;5001796;28;20116;-84
2023/07/20 04:08:28;;;;;;;12.18;5.20;;;;;;;;;;4997003;28;20075;-83
2023/07/20 04:10:57;;;;;;;13.15;4.53;;;;;;;;;;5029176;28;20139;-83
2023/07/20 04:14:04;;;;;;;8.70;4.40;;;;;;;;;;5045402;28;20403;-83
2023/07/20 04:16:38;;;;;;;9.27;4.25;;;;;;;;;;5046686;28;20075;-83
2023/07/20 04:19:09;;;;;;;12.43;4.15;;;;;;;;;;5046741;28;20080;-83
2023/07/20 04:21:43;;;;;;;8.00;4.05;;;;;;;;;;5045893;28;20104;-83
2023/07/20 04:24:21;;;;;;;;;;;;;;;;;;5047521;28;20025;-83
2023/07/20 04:41:08;;;;;;;12.85;5.05;;;;;;;;;;4811934;29;20071;-83
2023/07/20 04:43:48;;;;;;;9.20;4.32;;;;;;;;;;4780217;29;20081;-83
2023/07/20 04:46:30;;;;;;;11.52;4.30;;;;;;;;;;4885961;29;20092;-83
2023/07/20 04:49:33;;;;;;;11.93;4.40;;;;;;;;;;5021803;28;20037;-83
2023/07/20 04:51:59;;;;;;;10.60;4.27;;;;;;;;;;5042018;28;20033;-83
2023/07/20 04:55:24;;;;;;;;;;;;;;;;;;;;;
2023/07/20 04:57:53;;;;;;;9.30;4.53;;;;;;;;;;5002393;28;20044;-83
2023/07/20 05:03:40;;;;;;;11.57;4.35;;;;;;;;;;4944627;29;20532;-83
2023/07/20 05:06:20;;;;;;;11.25;4.65;;;;;;;;;;4963909;28;20110;-83
2023/07/20 05:08:46;;;;;;;9.23;5.43;;;;;;;;;;5029501;28;20073;-83
2023/07/20 05:18:22;;;;;;;;;;;;;;;;;;;;;
2023/07/20 05:20:55;;;;;;;12.68;5.00;;;;;;;;;;4836795;28;20697;-83
2023/07/20 05:23:33;;;;;;;18.90;6.37;;;;;;;;;;4964859;28;20038;-83
2023/07/20 05:25:59;;;;;;;16.42;6.03;;;;;;;;;;5011629;28;20527;-83
2023/07/20 05:28:41;;;;;;;15.90;5.70;;;;;;;;;;5045853;28;20414;-83
2023/07/20 05:31:07;;;;;;;11.48;5.38;;;;;;;;;;5044719;28;20422;-83
2023/07/20 05:33:33;;;;;;;10.57;4.70;;;;;;;;;;5044833;28;20020;-83
2023/07/20 05:35:59;;;;;;;11.75;4.85;;;;;;;;;;5045562;28;20501;-83
2023/07/20 05:38:28;;;;;;;13.60;5.00;;;;;;;;;;5045498;28;20541;-83
2023/07/20 05:45:14;;;;;;;;;;;;;;;;;;;;;
2023/07/20 05:48:00;;;;;;;12.35;5.60;;;;;;;;;;4955507;28;20053;-83
2023/07/20 05:53:31;;;;;;;17.52;6.07;;;;;;;;;;5032095;28;20430;-83
2023/07/20 06:03:34;;;;;;;15.25;6.78;;;;;;;;;;4973260;28;20084;-83
2023/07/20 06:06:13;;;;;;;15.73;6.57;;;;;;;;;;4968315;28;20038;-83
2023/07/20 06:08:38;;;;;;;17.80;6.90;;;;;;;;;;5051264;28;20124;-83
2023/07/20 06:11:20;;;;;;;19.60;7.88;;;;;;;;;;5039351;28;20120;-83
2023/07/20 06:14:16;;;;;;;25.20;7.95;;;;;;;;;;5029339;28;20041;-83
2023/07/20 06:16:45;;;;;;;17.13;7.75;;;;;;;;;;5022172;28;20120;-83
2023/07/20 06:19:11;;;;;;;17.25;7.95;;;;;;;;;;4990806;28;20049;-83
2023/07/20 06:21:38;;;;;;;20.80;8.82;;;;;;;;;;5007541;28;20037;-83
2023/07/20 06:24:04;;;;;;;21.98;9.27;;;;;;;;;;5020841;28;20401;-83
2023/07/20 06:26:30;;;;;;;19.98;8.20;;;;;;;;;;5055121;28;20490;-83
2023/07/20 06:28:56;;;;;;;19.38;8.20;;;;;;;;;;5055586;28;20036;-83
2023/07/20 06:31:22;;;;;;;21.13;9.70;;;;;;;;;;5038301;28;20621;-83
2023/07/20 06:33:51;;;;;;;20.48;9.40;;;;;;;;;;5059162;28;20070;-84
2023/07/20 06:36:18;;;;;;;21.70;8.65;;;;;;;;;;5058959;28;20040;-83
2023/07/20 06:38:47;;;;;;;17.00;8.52;;;;;;;;;;4987906;28;20167;-80
2023/07/20 06:41:16;;;;;;;22.60;8.57;;;;;;;;;;5031667;28;20875;-83
2023/07/20 06:43:42;;;;;;;17.98;8.32;;;;;;;;;;5055480;28;20143;-83
2023/07/20 06:46:08;;;;;;;14.38;8.48;;;;;;;;;;5054433;28;20131;-83
2023/07/20 06:48:39;;;;;;;17.63;8.50;;;;;;;;;;5056870;28;20024;-83
2023/07/20 06:51:05;;;;;;;15.73;7.18;;;;;;;;;;5058311;28;20024;-83
2023/07/20 06:54:35;;;;;;;16.95;7.80;;;;;;;;;;5044145;28;20407;-83
2023/07/20 06:57:17;;;;;;;13.82;7.55;;;;;;;;;;5051662;28;20044;-83
2023/07/20 07:00:06;;;;;;;22.40;8.00;;;;;;;;;;5065227;28;20052;-83
2023/07/20 07:03:05;;;;;;;18.17;7.85;;;;;;;;;;5062247;28;20115;-82
2023/07/20 07:06:39;;;;;;;14.07;7.03;;;;;;;;;;5066781;28;20037;-83
2023/07/20 07:09:24;;;;;;;14.05;6.28;;;;;;;;;;5051895;28;20039;-83
2023/07/20 07:11:50;;;;;;;14.82;7.25;;;;;;;;;;5048932;28;20377;-82
2023/07/20 07:14:16;;;;;;;15.18;7.07;;;;;;;;;;5078042;28;20075;-82
2023/07/20 07:16:42;;;;;;;15.68;7.05;;;;;;;;;;5028900;28;20474;-82
2023/07/20 07:19:08;;;;;;;13.90;6.97;;;;;;;;;;5045005;28;21126;-82
2023/07/20 07:21:37;;;;;;;15.57;7.13;;;;;;;;;;5020571;28;20055;-83
2023/07/20 07:24:44;;;;;;;12.95;7.20;;;;;;;;;;5044886;28;20204;-82
2023/07/20 07:30:45;;;;;;;13.85;7.30;;;;;;;;;;4995109;28;20524;-84
2023/07/20 07:33:19;;;;;;;12.68;6.78;;;;;;;;;;4997171;28;20040;-82
2023/07/20 07:35:52;;;;;;;14.63;7.32;;;;;;;;;;4994774;28;20075;-82
2023/07/20 07:38:27;;;;;;;12.30;5.82;;;;;;;;;;5005394;28;20362;-82
2023/07/20 07:41:20;;;;;;;15.55;6.93;;;;;;;;;;5002208;28;20052;-82
2023/07/20 07:51:09;;;;;;;8.10;3.90;;;;;;;;;;4861400;29;20139;-80
2023/07/20 07:53:36;;;;;;;8.00;3.90;;;;;;;;;;4958578;28;20034;-80
2023/07/20 07:56:05;;;;;;;6.13;3.70;;;;;;;;;;4976895;28;20079;-80
2023/07/20 07:58:34;;;;;;;7.10;4.30;;;;;;;;;;5023917;28;20083;-80
2023/07/20 08:01:09;;;;;;;5.93;3.83;;;;;;;;;;5067772;28;20066;-80
2023/07/20 08:13:32;;;;;;;7.15;3.20;;;;;;;;;;4888739;29;20136;-80
2023/07/20 08:17:03;;;;;;;;;;;;;;;;;;;;;
2023/07/20 08:19:47;;;;;;;3.90;2.40;;;;;;;;;;4937305;28;20050;-80
2023/07/20 08:26:12;;;;;;;;;;;;;;;;;;;;;
2023/07/20 08:28:55;;;;;;;;;;;;;;;;;;;;;
2023/07/20 08:31:30;;;;;;;5.35;3.47;;;;;;;;;;4950953;28;20050;-80
2023/07/20 08:33:56;;;;;;;5.75;3.10;;;;;;;;;;4947209;28;20319;-80
2023/07/20 08:36:23;;;;;;;3.55;2.60;;;;;;;;;;5000610;28;20087;-80
2023/07/20 08:39:10;;;;;;;5.85;3.00;;;;;;;;;;5042277;28;20025;-80
2023/07/20 08:41:52;;;;;;;3.10;2.30;;;;;;;;;;5072251;28;20052;-80
2023/07/20 08:44:24;;;;;;;4.93;2.72;;;;;;;;;;5074793;28;20044;-83
2023/07/20 08:46:57;;;;;;;5.30;3.13;;;;;;;;;;5071641;28;20051;-82
2023/07/20 08:49:34;;;;;;;3.95;2.80;;;;;;;;;;5073209;28;20589;-81
2023/07/20 08:52:11;;;;;;;;;;;;;;;;;;;;;
2023/07/20 08:55:21;;;;;;;5.30;2.72;;;;;;;;;;5081893;28;20088;-82
2023/07/20 08:57:54;;;;;;;4.95;2.95;;;;;;;;;;5058347;28;20151;-83
2023/07/20 09:00:21;;;;;;;3.80;2.50;;;;;;;;;;5083444;28;20111;-82
2023/07/20 09:02:51;;;;;;;5.10;2.60;;;;;;;;;;5085543;28;20034;-82
2023/07/20 09:05:22;;;;;;;4.70;2.50;;;;;;;;;;5032136;28;20044;-82
2023/07/20 09:08:09;;;;;;;3.88;2.25;;;;;;;;;;5060877;28;20040;-82
2023/07/20 09:10:37;;;;;;;3.83;2.50;;;;;;;;;;5072403;28;20642;-82
2023/07/20 09:13:05;;;;;;;4.30;2.33;;;;;;;;;;5073643;28;20452;-82
2023/07/20 09:16:05;;;;;;;3.75;2.40;;;;;;;;;;5052454;28;20056;-82
2023/07/20 09:18:36;;;;;;;4.55;2.50;;;;;;;;;;5051711;28;20580;-82
2023/07/20 09:21:29;;;;;;;;;;;;;;;;;;;;;
2023/07/20 09:24:00;;;;;;;4.00;2.67;;;;;;;;;;5010204;28;21549;-82
2023/07/20 09:26:28;;;;;;;3.25;2.25;;;;;;;;;;5085840;28;20020;-82
2023/07/20 09:30:08;;;;;;;3.90;2.30;;;;;;;;;;5066359;28;20568;-82
2023/07/20 09:32:27;;;;;;;2.65;2.20;;;;;;;;;;5063434;28;20699;-82
2023/07/20 09:35:22;;;;;;;4.20;2.00;;;;;;;;;;5085294;28;20051;-82
2023/07/20 09:49:10;;;;;;;3.08;1.88;;;;;;;;;;4728681;29;20048;-82
2023/07/20 09:56:14;;;;;;;2.35;1.85;;;;;;;;;;4920001;29;20054;-82
2023/07/20 09:59:22;;;;;;;4.72;2.10;;;;;;;;;;4885424;29;20041;-82
2023/07/20 10:01:54;;;;;;;5.75;2.05;;;;;;;;;;4888045;29;20044;-82
2023/07/20 10:04:47;;;;;;;3.75;1.90;;;;;;;;;;4894520;29;20067;-82
2023/07/20 10:07:20;;;;;;;3.78;2.00;;;;;;;;;;5005606;28;20052;-82
2023/07/20 10:09:51;;;;;;;3.83;2.00;;;;;;;;;;5045060;28;20061;-82
2023/07/20 10:13:07;;;;;;;4.90;2.00;;;;;;;;;;5044819;28;20092;-82
2023/07/20 10:19:52;;;;;;;4.28;2.38;;;;;;;;;;4952231;28;20039;-82
2023/07/20 10:22:23;;;;;;;5.78;3.45;;;;;;;;;;4966720;28;20050;-82
2023/07/20 10:28:16;;;;;;;4.95;2.70;;;;;;;;;;4929417;28;20110;-82
2023/07/20 10:31:18;;;;;;;4.55;3.00;;;;;;;;;;4973399;28;20048;-82
2023/07/20 10:33:47;;;;;;;6.90;3.50;;;;;;;;;;5035601;28;20071;-82
2023/07/20 10:36:15;;;;;;;10.20;3.50;;;;;;;;;;5061487;28;20407;-82
2023/07/20 10:38:53;;;;;;;5.53;3.58;;;;;;;;;;5061841;28;20083;-82
2023/07/20 10:44:40;;;;;;;10.88;4.38;;;;;;;;;;5058026;28;20072;-82
2023/07/20 10:52:23;;;;;;;;;;;;;;;;;;;;;
2023/07/20 10:54:34;;;;;;;6.75;3.47;;;;;;;;;;4916776;28;20042;-82
2023/07/20 10:57:33;;;;;;;7.72;4.50;;;;;;;;;;4983788;28;20535;-83
2023/07/20 11:03:07;;;;;;;6.80;3.97;;;;;;;;;;4922954;28;20134;-81
2023/07/20 11:05:39;;;;;;;5.53;4.15;;;;;;;;;;4956496;28;20126;-81
2023/07/20 11:08:38;;;;;;;7.65;3.63;;;;;;;;;;4993123;28;20044;-82
2023/07/20 11:15:32;;;;;;;5.85;3.40;;;;;;;;;;4920433;28;20565;-81
2023/07/20 11:18:30;;;;;;;5.35;2.90;;;;;;;;;;4997893;28;20073;-81
2023/07/20 11:21:42;;;;;;;6.43;3.95;;;;;;;;;;5000574;28;20110;-82
2023/07/20 11:23:46;;;;;;;3.53;2.00;;;;;;;;;;5040225;28;20043;-82
2023/07/20 11:26:13;;;;;;;3.03;2.10;;;;;;;;;;5028210;28;20098;-82
2023/07/20 11:29:05;;;;;;;3.10;1.95;;;;;;;;;;5048247;28;20028;-82
2023/07/20 11:31:35;;;;;;;8.10;2.33;;;;;;;;;;5063825;28;20119;-81
2023/07/20 11:34:04;;;;;;;3.78;2.10;;;;;;;;;;5067311;28;20038;-81
2023/07/20 11:36:54;;;;;;;;;;;;;;;;;;;;;
2023/07/20 11:39:32;;;;;;;5.65;2.55;;;;;;;;;;5008428;28;20037;-80
2023/07/20 11:45:06;;;;;;;5.25;2.92;;;;;;;;;;5029735;28;20045;-81
2023/07/20 11:47:50;;;;;;;4.70;3.15;;;;;;;;;;5042919;28;20053;-80
2023/07/20 11:56:10;;;;;;;4.93;3.10;;;;;;;;;;5005053;28;20406;-81
2023/07/20 11:58:58;;;;;;;;;;;;;;;;;;;;;
2023/07/20 12:02:12;;;;;;;4.28;2.80;;;;;;;;;;5001294;28;20063;-80
2023/07/20 12:04:48;;;;;;;5.30;3.00;;;;;;;;;;5037507;28;20041;-80
2023/07/20 12:07:13;;;;;;;5.53;2.88;;;;;;;;;;5039703;28;20095;-80
2023/07/20 12:12:50;;;;;;;5.45;3.42;;;;;;;;;;5002680;28;20533;-80
2023/07/20 12:15:23;;;;;;;6.00;3.67;;;;;;;;;;5042914;28;20033;-82
2023/07/20 12:17:56;;;;;;;5.20;3.20;;;;;;;;;;5045822;28;20041;-81
2023/07/20 12:20:40;;;;;;;5.32;2.97;;;;;;;;;;5043308;28;20063;-81
2023/07/20 12:23:10;;;;;;;3.75;2.78;;;;;;;;;;5035531;28;20085;-83
2023/07/20 12:25:46;;;;;;;5.45;2.50;;;;;;;;;;5047423;28;20053;-82
2023/07/20 12:28:16;;;;;;;4.22;3.00;;;;;;;;;;5029189;28;20056;-81
2023/07/20 12:30:44;;;;;;;3.85;2.67;;;;;;;;;;5036125;28;20045;-81
2023/07/20 12:33:15;;;;;;;4.47;2.72;;;;;;;;;;5034784;28;20449;-82
2023/07/20 12:35:43;;;;;;;3.88;2.45;;;;;;;;;;5064969;28;20044;-82
2023/07/20 12:38:14;;;;;;;3.53;2.80;;;;;;;;;;5059687;28;20040;-82
2023/07/20 12:40:58;;;;;;;;;;;;;;;;;;;;;
2023/07/20 12:43:24;;;;;;;6.78;3.45;;;;;;;;;;5054438;28;20044;-81
2023/07/20 12:45:50;;;;;;;5.20;2.92;;;;;;;;;;5065598;28;20131;-81
2023/07/20 12:48:16;;;;;;;4.50;2.85;;;;;;;;;;5065671;28;20119;-80
2023/07/20 12:50:42;;;;;;;7.80;3.10;;;;;;;;;;5047530;28;20456;-81
2023/07/20 12:53:08;;;;;;;4.95;3.30;;;;;;;;;;5065198;28;20052;-80
2023/07/20 12:55:34;;;;;;;3.95;3.00;;;;;;;;;;5064283;28;20097;-80
2023/07/20 12:58:00;;;;;;;6.63;3.17;;;;;;;;;;5047382;28;20142;-80
2023/07/20 13:00:25;;;;;;;5.80;2.92;;;;;;;;;;5063319;28;20461;-80
2023/07/20 13:02:51;;;;;;;8.95;3.53;;;;;;;;;;5045678;28;20029;-81
2023/07/20 13:05:20;;;;;;;8.25;3.22;;;;;;;;;;5045000;28;20033;-82
2023/07/20 13:08:55;;;;;;;;;;;;;;;;;;;;;
2023/07/20 13:14:11;;;;;;;4.75;2.83;;;;;;;;;;4942555;29;20080;-81
2023/07/20 13:16:37;;;;;;;4.15;2.70;;;;;;;;;;5020853;28;20098;-82
2023/07/20 13:19:03;;;;;;;3.85;2.60;;;;;;;;;;5061966;28;20559;-81
2023/07/20 13:21:31;;;;;;;3.10;2.40;;;;;;;;;;5052191;28;20078;-81
2023/07/20 13:23:57;;;;;;;6.25;2.78;;;;;;;;;;5032259;28;20033;-81
2023/07/20 13:26:24;;;;;;;5.90;2.95;;;;;;;;;;5046762;28;20123;-81
2023/07/20 13:28:49;;;;;;;2.90;2.33;;;;;;;;;;5055402;28;20612;-80
2023/07/20 13:31:17;;;;;;;3.83;2.20;;;;;;;;;;5049934;28;20123;-80
2023/07/20 13:33:43;;;;;;;4.30;1.85;;;;;;;;;;5054709;28;20040;-80
2023/07/20 13:36:09;;;;;;;2.53;1.88;;;;;;;;;;5055591;28;20047;-80
2023/07/20 13:38:35;;;;;;;5.35;2.38;;;;;;;;;;5063923;28;20047;-80
2023/07/20 13:41:03;;;;;;;5.57;2.20;;;;;;;;;;5063263;28;20056;-80
2023/07/20 13:43:29;;;;;;;4.45;1.95;;;;;;;;;;5049578;28;20036;-80
2023/07/20 13:45:54;;;;;;;3.03;1.90;;;;;;;;;;5056403;28;20040;-80
2023/07/20 13:48:22;;;;;;;6.13;1.77;;;;;;;;;;5055281;28;20039;-80
2023/07/20 13:51:18;;;;;;;;;;;;;;;;;;;;;
2023/07/20 13:54:04;;;;;;;;;;;;;;;;;;;;;
2023/07/20 13:56:33;;;;;;;5.30;2.28;;;;;;;;;;5073109;28;20572;-81
2023/07/20 13:58:58;;;;;;;5.00;2.20;;;;;;;;;;5075506;28;20040;-80
2023/07/20 14:01:24;;;;;;;3.83;2.08;;;;;;;;;;5068008;28;20120;-80
2023/07/20 14:03:51;;;;;;;3.17;2.22;;;;;;;;;;5056133;28;20504;-81
2023/07/20 14:06:24;;;;;;;3.92;1.85;;;;;;;;;;5082577;28;20024;-81
2023/07/20 14:08:50;;;;;;;4.10;1.90;;;;;;;;;;5079437;28;20035;-81
2023/07/20 14:11:17;;;;;;;6.80;1.70;;;;;;;;;;5056737;28;20044;-80
2023/07/20 14:14:06;;;;;;;2.35;1.60;;;;;;;;;;5054674;28;20048;-82
2023/07/20 14:16:34;;;;;;;2.30;1.80;;;;;;;;;;5047097;28;20036;-79
2023/07/20 14:19:05;;;;;;;3.47;1.90;;;;;;;;;;5053654;28;20174;-80
2023/07/20 14:21:43;;;;;;;;;;;;;;;;;;;;;
2023/07/20 14:24:58;;;;;;;2.85;1.40;;;;;;;;;;5070163;28;20166;-80
2023/07/20 14:27:27;;;;;;;3.95;1.73;;;;;;;;;;5049602;28;20047;-80
2023/07/20 14:29:58;;;;;;;7.50;1.90;;;;;;;;;;5069508;28;20025;-80
2023/07/20 14:39:40;;;;;;;3.45;1.70;;;;;;;;;;4959358;28;20204;-80
2023/07/20 14:45:55;;;;;;;7.78;2.13;;;;;;;;;;4886899;28;20093;-80
2023/07/20 14:48:23;;;;;;;;;;;;;;;;;;4933089;29;20035;-80
2023/07/20 14:54:28;;;;;;;4.45;2.75;;;;;;;;;;4955942;28;20178;-79
2023/07/20 14:56:56;;;;;;;3.57;1.70;;;;;;;;;;4975586;28;20073;-79
2023/07/20 14:59:36;;;;;;;2.72;1.70;;;;;;;;;;4967578;28;20031;-79
2023/07/20 15:03:11;;;;;;;2.10;1.50;;;;;;;;;;4985942;28;20074;-79
2023/07/20 15:05:21;;;;;;;5.00;1.90;;;;;;;;;;4934864;28;20065;-80
2023/07/20 15:07:47;;;;;;;3.00;1.90;;;;;;;;;;5046665;28;20021;-80
2023/07/20 15:10:13;;;;;;;2.17;1.83;;;;;;;;;;5028867;28;20065;-79
2023/07/20 15:12:43;;;;;;;3.78;1.80;;;;;;;;;;5057920;28;20039;-80
2023/07/20 15:16:05;;;;;;;4.53;2.55;;;;;;;;;;5067340;28;20035;-80
2023/07/20 15:18:36;;;;;;;5.30;2.75;;;;;;;;;;5016278;28;20557;-79
2023/07/20 15:21:05;;;;;;;4.90;3.20;;;;;;;;;;5066605;28;20021;-80
2023/07/20 15:23:31;;;;;;;3.92;2.90;;;;;;;;;;5073657;28;20025;-80
2023/07/20 15:26:07;;;;;;;4.68;2.92;;;;;;;;;;5053584;28;20600;-80
2023/07/20 15:28:40;;;;;;;5.30;2.70;;;;;;;;;;5054119;28;20058;-79
2023/07/20 15:31:55;;;;;;;4.35;2.53;;;;;;;;;;5067373;28;20125;-79
2023/07/20 15:34:21;;;;;;;2.65;2.00;;;;;;;;;;5014597;28;20186;-81
2023/07/20 15:37:45;;;;;;;3.80;2.33;;;;;;;;;;5056321;28;20581;-79
2023/07/20 15:40:23;;;;;;;5.35;2.55;;;;;;;;;;5013855;28;20071;-78
2023/07/20 15:42:54;;;;;;;4.93;2.53;;;;;;;;;;5035404;28;20519;-78
2023/07/20 15:45:26;;;;;;;5.63;2.67;;;;;;;;;;5021948;28;20799;-78
2023/07/20 15:48:05;;;;;;;4.50;2.70;;;;;;;;;;5020852;28;20044;-79
2023/07/20 15:50:33;;;;;;;6.63;2.80;;;;;;;;;;5039679;28;20021;-79
2023/07/20 15:52:58;;;;;;;4.75;2.55;;;;;;;;;;5046233;28;20057;-79
2023/07/20 15:56:09;;;;;;;;;;;;;;;;;;;;;
2023/07/20 15:59:42;;;;;;;3.40;2.35;;;;;;;;;;4991756;28;20038;-80
2023/07/20 16:01:43;;;;;;;4.25;2.60;;;;;;;;;;4984716;28;20049;-79
2023/07/20 16:04:16;;;;;;;4.85;2.47;;;;;;;;;;5030309;28;20045;-79
2023/07/20 16:06:42;;;;;;;2.95;2.22;;;;;;;;;;5025890;28;20088;-79
2023/07/20 16:09:08;;;;;;;4.65;2.80;;;;;;;;;;5025212;28;20082;-78
2023/07/20 16:11:35;;;;;;;3.85;2.65;;;;;;;;;;5033969;28;20028;-78
2023/07/20 16:14:01;;;;;;;3.53;2.60;;;;;;;;;;5041893;28;20717;-78
2023/07/20 16:17:14;;;;;;;3.42;2.40;;;;;;;;;;5040605;28;20048;-78
2023/07/20 16:19:42;;;;;;;3.83;2.80;;;;;;;;;;5040113;28;20470;-78
2023/07/20 16:22:11;;;;;;;3.53;2.35;;;;;;;;;;5044095;28;20495;-78
2023/07/20 16:24:40;;;;;;;3.28;2.35;;;;;;;;;;5037055;28;20095;-78
2023/07/20 16:27:17;;;;;;;2.40;2.00;;;;;;;;;;5048441;28;20048;-79
2023/07/20 16:29:43;;;;;;;2.58;1.98;;;;;;;;;;5045005;28;20037;-79
2023/07/20 16:32:09;;;;;;;4.13;2.10;;;;;;;;;;5046073;28;20079;-79
2023/07/20 16:34:35;;;;;;;3.63;2.20;;;;;;;;;;5044689;28;20120;-78
2023/07/20 16:37:02;;;;;;;2.78;2.10;;;;;;;;;;5044424;28;20132;-79
2023/07/20 16:39:41;;;;;;;;;;;;;;;;;;;;;
2023/07/20 16:42:12;;;;;;;2.63;1.80;;;;;;;;;;5042679;28;20045;-79
2023/07/20 16:44:47;;;;;;;2.42;1.80;;;;;;;;;;5049523;28;20717;-79
2023/07/20 16:47:15;;;;;;;2.38;1.70;;;;;;;;;;5065688;28;20021;-79
2023/07/20 16:49:41;;;;;;;2.13;1.77;;;;;;;;;;5044392;28;20032;-79
2023/07/20 16:52:10;;;;;;;2.22;1.73;;;;;;;;;;5053497;28;20032;-79
2023/07/20 16:54:38;;;;;;;8.93;2.40;;;;;;;;;;5063558;28;20370;-79
2023/07/20 16:57:08;;;;;;;2.90;1.80;;;;;;;;;;5056898;28;20036;-79
2023/07/20 16:59:34;;;;;;;2.60;1.80;;;;;;;;;;5044794;28;20084;-79
2023/07/20 17:02:05;;;;;;;1.80;1.67;;;;;;;;;;5052451;28;20056;-79
2023/07/20 17:04:33;;;;;;;2.10;1.73;;;;;;;;;;5044717;28;20033;-79
2023/07/20 17:06:59;;;;;;;2.10;1.80;;;;;;;;;;5025297;28;20582;-79
2023/07/20 17:09:25;;;;;;;1.73;1.60;;;;;;;;;;5043650;28;20532;-79
2023/07/20 17:11:54;;;;;;;1.85;1.50;;;;;;;;;;5032301;28;20025;-79
2023/07/20 17:14:25;;;;;;;2.78;1.60;;;;;;;;;;5050150;28;20532;-78
2023/07/20 17:16:54;;;;;;;3.90;1.70;;;;;;;;;;5061131;28;20044;-79
2023/07/20 17:19:26;;;;;;;1.75;1.60;;;;;;;;;;5065207;28;20059;-79
2023/07/20 17:25:05;;;;;;;2.05;1.70;;;;;;;;;;5070678;28;20117;-80
2023/07/20 17:34:18;;;;;;;;;;;;;;;;;;4971133;28;20073;-79
2023/07/20 17:36:44;;;;;;;3.53;1.77;;;;;;;;;;4984936;28;20024;-81
2023/07/20 17:39:10;;;;;;;4.13;1.75;;;;;;;;;;5028759;28;20044;-80
2023/07/20 17:41:41;;;;;;;2.80;1.80;;;;;;;;;;5055137;28;20064;-80
2023/07/20 17:44:11;;;;;;;2.58;1.70;;;;;;;;;;5040946;28;20025;-80
2023/07/20 17:46:45;;;;;;;2.78;1.80;;;;;;;;;;5037875;28;20045;-79
2023/07/20 17:50:04;;;;;;;3.70;1.90;;;;;;;;;;5043157;28;20041;-80
2023/07/20 17:52:52;;;;;;;;;;;;;;;;;;;;;
2023/07/20 17:55:18;;;;;;;3.42;2.03;;;;;;;;;;5032316;28;20037;-80
2023/07/20 17:57:48;;;;;;;3.33;2.28;;;;;;;;;;5054447;28;20127;-80
2023/07/20 18:00:15;;;;;;;2.50;2.10;;;;;;;;;;5067171;28;20539;-79
2023/07/20 18:02:42;;;;;;;2.17;1.90;;;;;;;;;;5064814;28;20078;-79
2023/07/20 18:05:13;;;;;;;3.30;2.15;;;;;;;;;;5063328;28;20071;-79
2023/07/20 18:07:45;;;;;;;3.13;1.90;;;;;;;;;;5068640;28;20043;-79
2023/07/20 18:10:10;;;;;;;4.43;2.03;;;;;;;;;;5068882;28;20540;-79
2023/07/20 18:12:39;;;;;;;1.95;1.75;;;;;;;;;;5067154;28;20032;-78
2023/07/20 18:15:08;;;;;;;2.83;1.80;;;;;;;;;;5066630;28;20410;-79
2023/07/20 18:17:52;;;;;;;2.70;1.85;;;;;;;;;;5061941;28;20573;-80
2023/07/20 18:20:20;;;;;;;2.15;1.65;;;;;;;;;;5053240;28;20381;-78
2023/07/20 18:23:33;;;;;;;2.70;1.90;;;;;;;;;;5053548;28;20052;-79
2023/07/20 18:25:58;;;;;;;1.85;1.63;;;;;;;;;;5033656;28;20049;-79
2023/07/20 18:28:24;;;;;;;3.40;1.85;;;;;;;;;;5032812;28;20033;-79
2023/07/20 18:30:50;;;;;;;2.75;1.90;;;;;;;;;;5028775;28;20037;-78
2023/07/20 18:33:19;;;;;;;3.13;1.90;;;;;;;;;;5048911;28;20044;-79
2023/07/20 18:35:45;;;;;;;2.20;1.60;;;;;;;;;;5065926;28;20044;-78
2023/07/20 18:38:13;;;;;;;4.63;1.77;;;;;;;;;;5067096;28;20029;-78
2023/07/20 18:40:53;;;;;;;2.25;1.80;;;;;;;;;;5055217;28;20589;-78
2023/07/20 18:43:18;;;;;;;2.15;1.77;;;;;;;;;;5082505;28;20040;-79
2023/07/20 18:45:46;;;;;;;2.00;1.77;;;;;;;;;;5086350;28;20040;-78
2023/07/20 18:48:12;;;;;;;2.63;1.92;;;;;;;;;;5044638;28;20119;-78
2023/07/20 18:51:04;;;;;;;4.55;1.83;;;;;;;;;;5065418;28;20095;-78
2023/07/20 18:54:07;;;;;;;14.75;2.35;;;;;;;;;;5063164;28;20039;-78
2023/07/20 18:56:32;;;;;;;5.13;2.55;;;;;;;;;;5065710;28;20079;-78
2023/07/20 18:59:07;;;;;;;3.00;2.00;;;;;;;;;;5067054;28;20131;-78